Douglas, WY (82633)

11:22 PM MDT on October 21, 2014 (GMT -0600)
Converse County | Change Station
CLOSE
Current Station
Airport
Location: Douglas,
Elevation: 4928 ft
Nearby Weather Stations

Elev 4928 ft 42.80 °N, 105.38 °W | Updated 29 minutes ago

Mostly Cloudy
Mostly Cloudy
57 °F
Feels Like 57 °F
N
7
Wind Variable Wind from WSW

Today
High -- | Low -- °F
--% Chance of Precip.
Yesterday
High -- | Low -- °F
Precip. -- in
7:22 AM 6:09 PM
Waning Crescent, 3% visible
Pressure 29.80 in
Visibility 10.0 miles
Clouds Clear
Dew Point 38 °F
Humidity 49%
Rainfall 0.00 in
Snow Depth Not available.
UV 0 out of 12
Pollen 3.50 out of 12
Air Quality Not available.
Flu Activity Sporadic
METAR KDGW 220453Z AUTO 25006KT 10SM CLR 14/03 A2993 RMK AO2 SLP091 T01390033

More Conditions Fewer Conditions

Pressure 29.80 in
Visibility 10.0 miles
Clouds Clear
Dew Point 38 °F
Humidity 49%
Rainfall 0.00 in
Snow Depth Not available.
UV 0 out of 12
Pollen 3.50 out of 12
Air Quality Not available.
Flu Activity Sporadic
METAR KDGW 220453Z AUTO 25006KT 10SM CLR 14/03 A2993 RMK AO2 SLP091 T01390033

More Conditions Fewer Conditions

10-Day Weather Forecast

Almanac

Astronomy

Oct. 21, 2014 Rise Set
Actual Time 7:22 AM MDT 6:09 PM MDT
Civil Twilight 6:53 AM MDT 6:38 PM MDT
Nautical Twilight 6:20 AM MDT 7:11 PM MDT
Astronomical Twilight 5:47 AM MDT 7:44 PM MDT
Moon 5:06 AM MDT (10/21) 5:07 PM MDT (10/21)
Length of Visible Light 11h 44m
Length of Day
10h 46m
Tomorrow will be 2m 45s shorter.
Waning Crescent, 3% of the Moon is Illuminated
Oct 22
Waning Crescent
Oct 23
New
Oct 30
First Quarter
Nov 6
Full
Nov 14
Last Quarter

Yesterday's Extremes

State Highs State Lows

Community

WunderPhotos

Upload Photos

1,763,884 photos uploaded!

Nearby

Snow Depth

Station Depth Elevation
Reno Hill 0 in 8500 ft
Laprele Creek 0 in 8375 ft
Casper Mountain 0 in 7850 ft
Windy Peak 0 in 7900 ft
Sand Lake 4 in 10050 ft

Earthquake Activity

City Distance Mag. Time & Date
No recent earthquake activity has been reported nearby.
Minimum magnitude displayed is 2.5.

Coastal Water Temperatures

Place Temperature
No Stations Reporting

Nearby Weather Stations